createdAt,value
2019-02-21T00:00:39.824Z,101948.74
2019-02-21T00:05:42.506Z,101947.09
2019-02-21T00:10:45.215Z,101947.48
2019-02-21T00:15:47.968Z,101946.75
2019-02-21T00:20:50.644Z,101951.61
2019-02-21T00:25:55.731Z,101954.17
2019-02-21T00:30:58.004Z,101946.70
2019-02-21T00:36:00.710Z,101949.42
2019-02-21T00:41:04.314Z,101953.84
2019-02-21T00:46:07.007Z,101952.52
2019-02-21T00:51:09.718Z,101948.23
2019-02-21T00:56:12.394Z,101946.43
2019-02-21T01:01:15.083Z,101945.67
2019-02-21T01:06:17.775Z,101944.36
2019-02-21T01:11:20.657Z,101939.16
2019-02-21T01:16:23.338Z,101930.05
2019-02-21T01:21:26.017Z,101933.57
2019-02-21T01:26:28.739Z,101934.38
2019-02-21T01:31:31.439Z,101939.22
2019-02-21T01:36:34.123Z,101946.61
2019-02-21T01:41:36.811Z,101952.32
2019-02-21T01:46:39.536Z,101951.36
2019-02-21T01:51:42.214Z,101950.92
2019-02-21T01:56:44.898Z,101945.87
2019-02-21T02:01:47.585Z,101941.59
2019-02-21T02:06:50.267Z,101951.58
2019-02-21T02:11:53.008Z,101954.58
2019-02-21T02:16:55.671Z,101961.55
2019-02-21T02:21:58.362Z,101955.89
2019-02-21T02:27:01.119Z,101955.48
2019-02-21T02:32:03.888Z,101955.89
2019-02-21T02:37:06.588Z,101952.41
2019-02-21T02:42:09.256Z,101956.33
2019-02-21T02:47:11.930Z,101954.15
2019-02-21T02:52:14.650Z,101956.48
2019-02-21T02:57:17.337Z,101963.83
2019-02-21T03:02:20.002Z,101964.73
2019-02-21T03:07:22.677Z,101965.20
2019-02-21T03:12:25.359Z,101956.50
2019-02-21T03:17:28.063Z,101958.59
2019-02-21T03:22:30.751Z,101954.20
2019-02-21T03:27:33.470Z,101956.66
2019-02-21T03:32:36.179Z,101956.74
2019-02-21T03:37:38.913Z,101958.00
2019-02-21T03:42:41.733Z,101957.17
2019-02-21T03:47:44.413Z,101961.97
2019-02-21T03:52:47.089Z,101955.44
2019-02-21T03:57:49.768Z,101954.58
2019-02-21T04:02:52.474Z,101958.98
2019-02-21T04:07:55.176Z,101956.97
2019-02-21T04:12:57.853Z,101942.77
2019-02-21T04:18:00.573Z,101944.63
2019-02-21T04:23:03.282Z,101939.93
2019-02-21T04:28:05.971Z,101930.28
2019-02-21T04:33:08.655Z,101921.47
2019-02-21T04:38:11.350Z,101920.14
2019-02-21T04:43:14.092Z,101924.03
2019-02-21T04:48:16.774Z,101920.17
2019-02-21T04:53:19.453Z,101921.87
2019-02-21T04:58:22.561Z,101917.12
2019-02-21T05:03:25.229Z,101921.06
2019-02-21T05:08:27.926Z,101928.05
2019-02-21T05:13:30.628Z,101930.31
2019-02-21T05:18:33.388Z,101927.20
2019-02-21T05:23:36.838Z,101933.25
2019-02-21T05:28:41.296Z,101934.55
2019-02-21T05:34:09.684Z,101931.16
2019-02-21T05:39:34.854Z,101932.13
2019-02-21T05:44:43.085Z,101934.69
2019-02-21T05:49:54.274Z,101934.70
2019-02-21T05:55:04.857Z,101938.28
2019-02-21T06:00:42.601Z,101946.17
2019-02-21T06:06:04.951Z,101944.91
2019-02-21T06:11:25.946Z,101956.23
2019-02-21T06:16:46.600Z,101955.84
2019-02-21T06:22:10.138Z,101958.81
2019-02-21T06:27:13.069Z,101964.97
2019-02-21T06:32:15.730Z,101958.38
2019-02-21T06:37:18.407Z,101964.02
2019-02-21T06:42:21.112Z,101957.05
2019-02-21T06:47:23.786Z,101967.44
2019-02-21T06:52:26.464Z,101961.42
2019-02-21T06:57:29.153Z,101973.08
2019-02-21T07:02:31.817Z,101967.00
2019-02-21T07:07:34.494Z,101970.92
2019-02-21T07:12:37.163Z,101970.98
2019-02-21T07:17:48.907Z,101973.07
2019-02-21T07:22:44.405Z,101983.04
2019-02-21T07:27:47.092Z,101982.79
2019-02-21T07:32:49.758Z,101992.63
2019-02-21T07:37:52.425Z,101994.70
2019-02-21T07:42:55.083Z,101995.52
2019-02-21T07:47:57.744Z,101999.93
2019-02-21T07:53:02.706Z,102013.13
2019-02-21T07:58:05.008Z,102016.98
2019-02-21T08:03:09.181Z,102026.80
2019-02-21T08:08:12.082Z,102021.97
2019-02-21T08:13:14.751Z,102018.05
2019-02-21T08:18:17.443Z,102019.63
2019-02-21T08:23:20.147Z,102023.20
2019-02-21T08:28:22.840Z,102030.38
2019-02-21T08:33:58.357Z,102030.59
2019-02-21T08:38:55.357Z,102039.34
2019-02-21T08:43:58.028Z,102032.97
2019-02-21T08:49:00.699Z,102044.06
2019-02-21T08:54:05.545Z,102051.21
2019-02-21T08:59:07.959Z,102050.66
2019-02-21T09:04:26.417Z,102051.21
2019-02-21T09:09:15.198Z,102055.55
2019-02-21T09:14:17.883Z,102059.71
2019-02-21T09:19:20.581Z,102058.48
2019-02-21T09:24:37.499Z,102063.11
2019-02-21T09:29:27.853Z,102078.31
2019-02-21T09:34:30.527Z,102069.67
2019-02-21T09:39:33.228Z,102076.51
2019-02-21T09:44:36.019Z,102071.18
2019-02-21T09:49:38.699Z,102071.28
2019-02-21T09:54:41.389Z,102077.52
2019-02-21T09:59:44.071Z,102076.73
2019-02-21T10:04:46.748Z,102067.64
2019-02-21T10:09:49.419Z,102064.51
2019-02-21T10:14:52.111Z,102071.11
2019-02-21T10:19:54.770Z,102063.65
2019-02-21T10:24:57.466Z,102051.51
2019-02-21T10:30:00.239Z,102044.09
2019-02-21T10:35:03.555Z,102047.95
2019-02-21T10:40:08.516Z,102063.61
2019-02-21T10:45:13.892Z,102067.72
2019-02-21T10:50:17.853Z,102068.01
2019-02-21T10:55:24.157Z,102053.16
2019-02-21T11:00:31.646Z,102054.13
2019-02-21T11:05:44.263Z,102045.49
2019-02-21T11:10:53.579Z,102048.01
2019-02-21T11:15:56.327Z,102040.69
2019-02-21T11:21:02.147Z,102043.05
2019-02-21T11:26:06.232Z,102044.77
2019-02-21T11:31:08.957Z,102036.39
2019-02-21T11:36:11.639Z,102039.72
2019-02-21T11:41:14.311Z,102021.94
2019-02-21T11:46:16.981Z,102022.12
2019-02-21T11:51:19.660Z,102006.50
2019-02-21T11:56:22.334Z,101997.53
2019-02-21T12:01:25.006Z,101997.14
2019-02-21T12:06:27.678Z,102003.52
2019-02-21T12:11:30.360Z,101993.54
2019-02-21T12:16:33.038Z,102001.77
2019-02-21T12:21:35.730Z,101999.43
2019-02-21T12:26:38.400Z,102015.14
2019-02-21T12:31:41.085Z,102014.90
2019-02-21T12:36:43.774Z,102014.75
2019-02-21T12:41:46.443Z,102018.48
2019-02-21T12:46:49.143Z,102023.25
2019-02-21T12:51:51.842Z,102028.86
2019-02-21T12:56:54.516Z,102029.05
2019-02-21T13:01:57.222Z,102021.17
2019-02-21T13:06:59.923Z,102028.96
2019-02-21T13:12:02.725Z,102025.17
2019-02-21T13:17:05.403Z,102025.33
2019-02-21T13:22:08.083Z,102026.31
2019-02-21T13:27:10.759Z,102023.95
2019-02-21T13:32:13.434Z,102026.84
2019-02-21T13:37:27.971Z,102020.30
2019-02-21T13:42:20.693Z,102016.69
2019-02-21T13:47:23.374Z,102010.11
2019-02-21T13:52:26.067Z,102019.14
2019-02-21T13:57:28.743Z,102024.50
2019-02-21T14:02:31.413Z,102015.56
2019-02-21T14:07:34.102Z,102026.31
2019-02-21T14:12:36.761Z,102031.71
2019-02-21T14:17:39.452Z,102024.11
2019-02-21T14:22:42.146Z,102026.41
2019-02-21T14:27:44.851Z,102033.92
2019-02-21T14:32:47.553Z,102035.84
2019-02-21T14:37:50.228Z,102047.22
2019-02-21T14:42:52.930Z,102044.89
2019-02-21T14:47:55.640Z,102050.08
2019-02-21T14:52:58.319Z,102053.75
2019-02-21T14:58:01.015Z,102070.32
2019-02-21T15:03:03.740Z,102065.81
2019-02-21T15:08:06.427Z,102078.03
2019-02-21T15:13:09.110Z,102077.01
2019-02-21T15:18:11.814Z,102077.80
2019-02-21T15:23:14.491Z,102079.08
2019-02-21T15:28:17.167Z,102082.74
2019-02-21T15:33:19.860Z,102083.58
2019-02-21T15:38:22.538Z,102086.02
2019-02-21T15:43:25.248Z,102094.31
2019-02-21T15:48:27.971Z,102096.07
2019-02-21T15:53:30.674Z,102086.59
2019-02-21T15:58:33.371Z,102091.11
2019-02-21T16:03:36.062Z,102085.45
2019-02-21T16:08:38.734Z,102080.48
2019-02-21T16:13:41.546Z,102080.89
2019-02-21T16:18:44.818Z,102076.48
2019-02-21T16:23:47.541Z,102082.09
2019-02-21T16:28:50.289Z,102087.83
2019-02-21T16:33:52.979Z,102088.27
2019-02-21T16:44:02.101Z,102084.77
2019-02-21T16:54:21.571Z,102076.04
2019-02-21T16:59:24.244Z,102094.87
2019-02-21T17:04:26.942Z,102101.55
2019-02-21T17:09:29.678Z,102109.36
2019-02-21T17:14:32.467Z,102115.34
2019-02-21T17:19:35.180Z,102127.17
2019-02-21T17:24:37.892Z,102142.09
2019-02-21T17:29:40.577Z,102146.11
2019-02-21T17:34:43.295Z,102146.28
2019-02-21T17:39:45.976Z,102163.32
2019-02-21T17:44:48.670Z,102168.10
2019-02-21T17:49:51.365Z,102178.27
2019-02-21T17:54:54.060Z,102185.13
2019-02-21T17:59:56.779Z,102190.13
2019-02-21T18:04:59.485Z,102194.72
2019-02-21T18:10:02.712Z,102204.44
2019-02-21T18:15:05.942Z,102205.80
2019-02-21T18:20:09.263Z,102216.85
2019-02-21T18:25:17.107Z,102216.91
2019-02-21T18:30:19.799Z,102218.73
2019-02-21T18:35:22.505Z,102222.18
2019-02-21T18:40:25.207Z,102222.23
2019-02-21T18:45:27.889Z,102225.07
2019-02-21T18:50:38.199Z,102221.16
2019-02-21T18:55:35.346Z,102219.95
2019-02-21T19:00:38.093Z,102218.64
2019-02-21T19:05:40.806Z,102229.63
2019-02-21T19:10:43.553Z,102230.03
2019-02-21T19:15:46.332Z,102227.41
2019-02-21T19:20:49.100Z,102229.09
2019-02-21T19:25:51.851Z,102237.32
2019-02-21T19:31:03.795Z,102235.62
2019-02-21T19:36:06.483Z,102237.37
2019-02-21T19:41:09.492Z,102236.00
2019-02-21T19:46:12.213Z,102245.17
2019-02-21T19:51:14.894Z,102258.33
2019-02-21T19:56:17.579Z,102264.41
2019-02-21T20:01:20.278Z,102263.99
2019-02-21T20:06:22.980Z,102264.48
2019-02-21T20:11:25.727Z,102264.86
2019-02-21T20:16:28.484Z,102285.06
2019-02-21T20:21:31.295Z,102281.95
2019-02-21T20:26:34.022Z,102294.25
2019-02-21T20:31:36.702Z,102301.63
2019-02-21T20:36:50.451Z,102305.08
2019-02-21T20:41:44.068Z,102333.92
2019-02-21T20:46:46.842Z,102323.42
2019-02-21T20:51:49.529Z,102324.25
2019-02-21T20:56:52.262Z,102321.63
2019-02-21T21:01:54.987Z,102327.75
2019-02-21T21:06:57.685Z,102322.87
2019-02-21T21:12:00.362Z,102324.16
2019-02-21T21:17:03.048Z,102319.78
2019-02-21T21:22:05.763Z,102335.55
2019-02-21T21:27:08.526Z,102344.69
2019-02-21T21:32:11.220Z,102350.83
2019-02-21T21:37:13.918Z,102360.55
2019-02-21T21:42:16.612Z,102363.63
2019-02-21T21:47:19.321Z,102378.11
2019-02-21T21:52:22.028Z,102370.64
2019-02-21T21:57:24.709Z,102373.27
2019-02-21T22:02:27.407Z,102373.74
2019-02-21T22:07:30.080Z,102378.58
2019-02-21T22:12:32.768Z,102373.67
2019-02-21T22:17:35.463Z,102387.73
2019-02-21T22:22:38.152Z,102397.89
2019-02-21T22:27:40.832Z,102414.11
2019-02-21T22:32:43.581Z,102411.89
2019-02-21T22:37:46.350Z,102415.80
2019-02-21T22:42:49.048Z,102420.72
2019-02-21T22:47:51.726Z,102426.48
2019-02-21T22:52:54.399Z,102430.45
2019-02-21T22:57:57.079Z,102440.52
2019-02-21T23:03:00.563Z,102441.89
2019-02-21T23:09:04.972Z,102442.77
2019-02-21T23:14:07.650Z,102445.38
2019-02-21T23:19:10.437Z,102451.93
2019-02-21T23:24:13.151Z,102452.30
2019-02-21T23:29:15.824Z,102461.48
2019-02-21T23:34:32.577Z,102447.86
2019-02-21T23:39:38.427Z,102447.88
2019-02-21T23:44:39.853Z,102456.61
2019-02-21T23:49:42.530Z,102451.75
2019-02-21T23:54:45.213Z,102447.48
2019-02-21T23:59:47.889Z,102447.02
